Time;durP1;ratioP1;P1;durP2;ratioP2;P2;SDS_P1;SDS_P2;PMS_P1;PMS_P2;Temp;Humidity;BMP_temperature;BMP_pressure;BME280_temperature;BME280_humidity;BME280_pressure;Samples;Min_cycle;Max_cycle;Signal;HPM_P1;HPM_P2
2022/09/01 00:01:09;;;;;;;0.10;0.05;;;11.10;99.90;;;;;;5055730;28;20530;-75
2022/09/01 00:03:36;;;;;;;0.00;0.00;;;11.00;99.90;;;;;;5037585;28;20041;-75
2022/09/01 00:06:09;;;;;;;0.30;0.20;;;11.00;99.90;;;;;;5055550;28;20045;-75
2022/09/01 00:08:35;;;;;;;1.30;0.25;;;11.10;99.90;;;;;;5035836;28;20116;-75
2022/09/01 00:11:00;;;;;;;0.00;0.00;;;11.00;99.90;;;;;;5018029;28;20536;-75
2022/09/01 00:13:26;;;;;;;0.13;0.13;;;11.00;99.90;;;;;;5035931;28;20117;-75
2022/09/01 00:15:52;;;;;;;0.00;0.00;;;10.90;99.90;;;;;;5035770;28;20420;-75
2022/09/01 00:18:17;;;;;;;0.05;0.05;;;11.00;99.90;;;;;;5054007;28;20059;-75
2022/09/01 00:20:43;;;;;;;1.65;0.30;;;10.90;99.90;;;;;;5055679;28;20048;-75
2022/09/01 00:23:08;;;;;;;0.10;0.10;;;10.90;99.90;;;;;;5055421;28;20064;-74
2022/09/01 00:25:34;;;;;;;0.00;0.00;;;10.80;99.90;;;;;;5055402;28;20084;-75
2022/09/01 00:28:03;;;;;;;0.22;0.15;;;10.80;99.90;;;;;;5055058;28;20060;-75
2022/09/01 00:30:29;;;;;;;0.20;0.20;;;10.80;99.90;;;;;;5055190;28;20112;-75
2022/09/01 00:32:54;;;;;;;0.00;0.00;;;10.80;99.90;;;;;;5055062;28;20224;-75
2022/09/01 00:35:20;;;;;;;0.22;0.15;;;10.70;99.90;;;;;;5055341;28;20531;-75
2022/09/01 00:37:46;;;;;;;0.00;0.00;;;10.60;99.90;;;;;;5054777;28;20119;-75
2022/09/01 00:40:14;;;;;;;0.00;0.00;;;10.60;99.90;;;;;;5054870;28;20118;-75
2022/09/01 00:42:40;;;;;;;0.00;0.00;;;10.50;99.90;;;;;;5055225;28;20044;-75
2022/09/01 00:45:07;;;;;;;0.00;0.00;;;10.50;99.90;;;;;;5055154;28;20446;-75
2022/09/01 00:47:34;;;;;;;0.30;0.10;;;10.50;99.90;;;;;;5054853;28;20467;-75
2022/09/01 00:50:02;;;;;;;0.20;0.15;;;10.50;99.90;;;;;;5055132;28;20116;-75
2022/09/01 00:52:38;;;;;;;0.08;0.08;;;10.50;99.90;;;;;;5054245;28;20076;-75
2022/09/01 00:55:15;;;;;;;0.00;0.00;;;10.50;99.90;;;;;;5054270;28;20119;-75
2022/09/01 00:57:41;;;;;;;0.00;0.00;;;10.40;99.90;;;;;;5046593;28;21158;-75
2022/09/01 01:00:15;;;;;;;0.15;0.00;;;10.40;99.90;;;;;;5054084;28;20037;-75
2022/09/01 01:02:41;;;;;;;0.13;0.10;;;10.40;99.90;;;;;;5054328;28;20529;-75
2022/09/01 01:05:07;;;;;;;1.45;0.20;;;10.50;99.90;;;;;;5054147;28;20041;-75
2022/09/01 01:07:37;;;;;;;2.83;0.32;;;10.40;99.90;;;;;;5053828;28;20041;-75
2022/09/01 01:10:08;;;;;;;0.00;0.00;;;10.50;99.90;;;;;;5053968;28;20049;-75
2022/09/01 01:12:36;;;;;;;0.00;0.00;;;10.40;99.90;;;;;;5054401;28;20053;-75
2022/09/01 01:15:05;;;;;;;0.00;0.00;;;10.40;99.90;;;;;;5054576;28;20049;-75
2022/09/01 01:17:31;;;;;;;0.00;0.00;;;10.40;99.90;;;;;;5054536;28;20052;-75
2022/09/01 01:23:04;;;;;;;0.00;0.00;;;10.40;99.90;;;;;;5054304;28;20102;-75
2022/09/01 01:25:37;;;;;;;0.00;0.00;;;10.40;99.90;;;;;;5054623;28;20110;-75
2022/09/01 01:28:29;;;;;;;0.25;0.15;;;10.40;99.90;;;;;;5053870;28;20040;-75
2022/09/01 01:31:05;;;;;;;0.00;0.00;;;10.30;99.90;;;;;;5054382;28;20076;-75
2022/09/01 01:33:40;;;;;;;0.45;0.40;;;10.30;99.90;;;;;;5054125;28;20055;-75
2022/09/01 01:36:06;;;;;;;0.00;0.00;;;10.30;99.90;;;;;;5054027;28;20053;-75
2022/09/01 01:38:34;;;;;;;0.13;0.05;;;10.30;99.90;;;;;;5053962;28;20048;-75
2022/09/01 01:41:01;;;;;;;0.00;0.00;;;10.30;99.90;;;;;;5053971;28;20044;-75
2022/09/01 01:43:27;;;;;;;0.00;0.00;;;10.20;99.90;;;;;;5053990;28;20056;-75
2022/09/01 01:45:57;;;;;;;0.00;0.00;;;10.20;99.90;;;;;;5053680;28;20094;-76
2022/09/01 01:48:24;;;;;;;0.00;0.00;;;10.20;99.90;;;;;;5033897;28;20442;-75
2022/09/01 01:50:51;;;;;;;0.00;0.00;;;10.10;99.90;;;;;;5034097;28;20120;-75
2022/09/01 01:53:18;;;;;;;0.00;0.00;;;10.10;99.90;;;;;;5044713;28;20052;-75
2022/09/01 01:55:48;;;;;;;0.00;0.00;;;10.10;99.90;;;;;;5053520;28;20044;-74
2022/09/01 01:58:18;;;;;;;0.00;0.00;;;10.10;99.90;;;;;;5051430;28;20052;-75
2022/09/01 02:00:46;;;;;;;0.00;0.00;;;10.10;99.90;;;;;;5053951;28;20056;-74
2022/09/01 02:03:17;;;;;;;0.00;0.00;;;10.10;99.90;;;;;;5053414;28;20060;-75
2022/09/01 02:05:45;;;;;;;0.22;0.22;;;10.10;99.90;;;;;;5053589;28;20052;-75
2022/09/01 02:08:14;;;;;;;0.00;0.00;;;10.10;99.90;;;;;;5052739;28;20474;-75
2022/09/01 02:10:46;;;;;;;0.00;0.00;;;10.10;99.90;;;;;;5031195;28;20103;-75
2022/09/01 02:13:15;;;;;;;0.00;0.00;;;10.10;99.90;;;;;;5053761;28;20507;-75
2022/09/01 02:15:45;;;;;;;0.00;0.00;;;10.00;99.90;;;;;;5053559;28;20045;-75
2022/09/01 02:18:15;;;;;;;0.00;0.00;;;10.00;99.90;;;;;;5052989;28;20051;-75
2022/09/01 02:20:42;;;;;;;0.68;0.35;;;10.00;99.90;;;;;;5053331;28;20123;-75
2022/09/01 02:23:09;;;;;;;0.00;0.00;;;10.00;99.90;;;;;;5053170;28;20056;-75
2022/09/01 02:25:37;;;;;;;0.10;0.10;;;9.90;99.90;;;;;;5053463;28;20093;-75
2022/09/01 02:28:04;;;;;;;0.10;0.10;;;9.90;99.90;;;;;;5053137;28;20121;-75
2022/09/01 02:30:33;;;;;;;0.10;0.10;;;9.90;99.90;;;;;;5053382;28;20427;-75
2022/09/01 02:32:59;;;;;;;0.00;0.00;;;10.00;99.90;;;;;;5053048;28;20033;-75
2022/09/01 02:35:33;;;;;;;0.00;0.00;;;10.00;99.90;;;;;;5053289;28;20487;-74
2022/09/01 02:38:00;;;;;;;0.10;0.10;;;10.00;99.90;;;;;;5035109;28;20049;-75
2022/09/01 02:40:30;;;;;;;0.73;0.35;;;10.00;99.90;;;;;;5053095;28;20033;-75
2022/09/01 02:42:58;;;;;;;0.00;0.00;;;10.10;99.90;;;;;;5053234;28;20053;-75
2022/09/01 02:45:25;;;;;;;0.00;0.00;;;10.10;99.90;;;;;;5031941;28;20492;-75
2022/09/01 02:47:52;;;;;;;0.03;0.03;;;10.10;99.90;;;;;;5048265;28;20045;-74
2022/09/01 02:50:18;;;;;;;0.00;0.00;;;10.10;99.90;;;;;;5053303;28;20045;-74
2022/09/01 02:52:47;;;;;;;0.40;0.32;;;10.20;99.90;;;;;;5053082;28;20041;-74
2022/09/01 02:55:18;;;;;;;0.00;0.00;;;10.20;99.90;;;;;;5053051;28;20049;-74
2022/09/01 02:57:45;;;;;;;0.03;0.03;;;10.30;99.90;;;;;;5052762;28;20061;-74
2022/09/01 03:00:19;;;;;;;0.00;0.00;;;10.40;99.90;;;;;;5052948;28;20041;-74
2022/09/01 03:02:48;;;;;;;0.00;0.00;;;10.50;99.90;;;;;;5052642;28;20051;-74
2022/09/01 03:05:15;;;;;;;0.00;0.00;;;10.70;99.90;;;;;;5035059;28;20041;-74
2022/09/01 03:07:41;;;;;;;0.00;0.00;;;10.70;99.90;;;;;;5052622;28;20056;-74
2022/09/01 03:10:08;;;;;;;0.00;0.00;;;10.80;99.90;;;;;;5052934;28;20052;-75
2022/09/01 03:12:34;;;;;;;0.00;0.00;;;10.80;99.90;;;;;;5052888;28;20049;-74
2022/09/01 03:15:00;;;;;;;0.10;0.05;;;10.90;99.90;;;;;;5052663;28;20037;-74
2022/09/01 03:17:25;;;;;;;0.03;0.03;;;10.90;99.90;;;;;;5052624;28;20084;-75
2022/09/01 03:19:51;;;;;;;0.00;0.00;;;10.90;99.90;;;;;;5052911;28;20056;-75
2022/09/01 03:22:17;;;;;;;0.55;0.52;;;10.90;99.90;;;;;;5054736;28;20041;-74
2022/09/01 03:24:42;;;;;;;0.68;0.68;;;10.90;99.90;;;;;;5056654;28;20056;-73
2022/09/01 03:27:10;;;;;;;0.22;0.22;;;10.80;99.90;;;;;;5056364;28;20037;-75
2022/09/01 03:29:37;;;;;;;0.00;0.00;;;10.80;99.90;;;;;;5056719;28;20098;-75
2022/09/01 03:32:03;;;;;;;0.38;0.30;;;10.70;99.90;;;;;;5038632;28;20049;-75
2022/09/01 03:34:33;;;;;;;0.10;0.10;;;10.60;99.90;;;;;;5056524;28;20033;-75
2022/09/01 03:37:00;;;;;;;0.00;0.00;;;10.50;99.90;;;;;;5056447;28;20076;-75
2022/09/01 03:39:26;;;;;;;0.00;0.00;;;10.50;99.90;;;;;;5037920;28;20045;-74
2022/09/01 03:41:52;;;;;;;0.00;0.00;;;10.40;99.90;;;;;;5056102;28;20053;-75
2022/09/01 03:44:18;;;;;;;0.22;0.10;;;10.20;99.90;;;;;;5056537;28;20120;-75
2022/09/01 03:46:44;;;;;;;0.35;0.20;;;10.10;99.90;;;;;;5055878;28;20048;-74
2022/09/01 03:49:12;;;;;;;0.30;0.10;;;10.00;99.90;;;;;;5056263;28;20037;-74
2022/09/01 03:51:37;;;;;;;0.00;0.00;;;10.00;99.90;;;;;;5056111;28;20041;-74
2022/09/01 03:54:03;;;;;;;0.00;0.00;;;9.90;99.90;;;;;;5055936;28;20082;-75
2022/09/01 03:56:29;;;;;;;0.15;0.10;;;9.80;99.90;;;;;;5037689;28;20539;-75
2022/09/01 03:58:57;;;;;;;0.20;0.20;;;9.60;99.90;;;;;;5055571;28;20084;-74
2022/09/01 04:01:25;;;;;;;0.00;0.00;;;9.50;99.90;;;;;;5056007;28;20053;-74
2022/09/01 04:03:51;;;;;;;0.00;0.00;;;9.50;99.90;;;;;;5055740;28;20045;-74
2022/09/01 04:06:22;;;;;;;0.40;0.17;;;9.40;99.90;;;;;;5055272;28;20056;-74
2022/09/01 04:08:52;;;;;;;0.10;0.00;;;9.40;99.90;;;;;;5055866;28;20056;-74
2022/09/01 04:11:22;;;;;;;0.00;0.00;;;9.30;99.90;;;;;;5055582;28;20036;-74
2022/09/01 04:13:49;;;;;;;0.00;0.00;;;9.20;99.90;;;;;;5055594;28;20068;-73
2022/09/01 04:19:18;;;;;;;0.00;0.00;;;9.10;99.90;;;;;;5055558;28;20420;-74
2022/09/01 04:21:46;;;;;;;0.00;0.00;;;9.00;99.90;;;;;;5055380;28;20380;-74
2022/09/01 04:24:13;;;;;;;0.00;0.00;;;9.10;99.90;;;;;;5055450;28;20076;-75
2022/09/01 04:26:40;;;;;;;0.00;0.00;;;9.00;99.90;;;;;;5055119;28;20116;-74
2022/09/01 04:29:07;;;;;;;0.10;0.10;;;9.00;99.90;;;;;;5055230;28;20112;-74
2022/09/01 04:31:37;;;;;;;0.20;0.10;;;9.00;99.90;;;;;;5055050;28;20096;-75
2022/09/01 04:34:12;;;;;;;0.00;0.00;;;9.00;99.90;;;;;;5054057;28;20095;-74
2022/09/01 04:36:40;;;;;;;0.00;0.00;;;9.10;99.90;;;;;;5036396;28;20049;-75
2022/09/01 04:39:08;;;;;;;0.00;0.00;;;9.10;99.90;;;;;;5054775;28;20077;-74
2022/09/01 04:41:36;;;;;;;0.00;0.00;;;9.00;99.90;;;;;;5054577;28;20044;-74
2022/09/01 04:44:04;;;;;;;0.55;0.28;;;9.00;99.90;;;;;;5054621;28;20448;-74
2022/09/01 04:46:34;;;;;;;0.17;0.17;;;9.00;99.90;;;;;;5037029;28;20444;-75
2022/09/01 04:49:08;;;;;;;0.70;0.65;;;9.00;99.90;;;;;;5054339;28;20055;-75
2022/09/01 04:51:38;;;;;;;0.08;0.08;;;9.00;99.90;;;;;;5054178;28;20049;-76
2022/09/01 04:54:06;;;;;;;0.00;0.00;;;8.90;99.90;;;;;;5054589;28;20083;-75
2022/09/01 04:56:34;;;;;;;0.10;0.10;;;8.90;99.90;;;;;;5054232;28;20040;-75
2022/09/01 04:59:00;;;;;;;0.00;0.00;;;8.80;99.90;;;;;;5053962;28;20061;-76
2022/09/01 05:01:26;;;;;;;0.00;0.00;;;8.80;99.90;;;;;;5035797;28;20492;-75
2022/09/01 05:04:00;;;;;;;0.00;0.00;;;8.90;99.90;;;;;;5053976;28;20041;-75
2022/09/01 05:06:27;;;;;;;0.08;0.08;;;9.00;99.90;;;;;;5053956;28;20115;-75
2022/09/01 05:08:56;;;;;;;0.00;0.00;;;9.00;99.90;;;;;;5033565;28;20499;-76
2022/09/01 05:11:22;;;;;;;0.00;0.00;;;9.10;99.90;;;;;;5032844;28;20081;-76
2022/09/01 05:13:49;;;;;;;0.10;0.10;;;9.20;99.90;;;;;;5049858;28;20048;-75
2022/09/01 05:16:20;;;;;;;0.00;0.00;;;9.30;99.90;;;;;;5051009;28;20041;-75
2022/09/01 05:18:48;;;;;;;0.00;0.00;;;9.30;99.90;;;;;;5033071;28;20053;-76
2022/09/01 05:21:23;;;;;;;0.00;0.00;;;9.30;99.90;;;;;;5050582;28;20499;-76
2022/09/01 05:23:50;;;;;;;0.20;0.20;;;9.30;99.90;;;;;;5050454;28;20049;-76
2022/09/01 05:26:20;;;;;;;0.10;0.10;;;9.30;99.90;;;;;;5050522;28;20048;-76
2022/09/01 05:28:48;;;;;;;0.00;0.00;;;9.30;99.90;;;;;;5051942;28;20049;-75
2022/09/01 05:31:18;;;;;;;0.20;0.20;;;9.30;99.90;;;;;;5053656;28;20083;-76
2022/09/01 05:33:44;;;;;;;0.00;0.00;;;9.30;99.90;;;;;;5053666;28;20048;-76
2022/09/01 05:36:12;;;;;;;0.10;0.05;;;9.30;99.90;;;;;;5053938;28;20066;-75
2022/09/01 05:38:40;;;;;;;0.00;0.00;;;9.40;99.90;;;;;;5054253;28;20044;-75
2022/09/01 05:41:13;;;;;;;0.00;0.00;;;9.50;99.90;;;;;;5020234;28;20395;-76
2022/09/01 05:43:45;;;;;;;0.00;0.00;;;9.60;99.90;;;;;;5053957;28;20095;-76
2022/09/01 05:46:11;;;;;;;0.00;0.00;;;9.70;99.90;;;;;;5053860;28;20052;-75
2022/09/01 05:48:38;;;;;;;0.00;0.00;;;9.80;99.90;;;;;;5053895;28;20144;-75
2022/09/01 05:51:05;;;;;;;0.30;0.30;;;10.00;99.90;;;;;;5053734;28;20056;-76
2022/09/01 05:53:32;;;;;;;0.13;0.05;;;10.20;99.90;;;;;;5053619;28;20060;-76
2022/09/01 05:56:05;;;;;;;0.30;0.20;;;10.30;99.90;;;;;;5053944;28;20041;-75
2022/09/01 05:58:33;;;;;;;0.17;0.10;;;10.60;99.90;;;;;;5053196;28;20112;-76
2022/09/01 06:01:00;;;;;;;0.47;0.47;;;10.90;99.90;;;;;;5053427;28;20075;-75
2022/09/01 06:03:27;;;;;;;2.40;0.77;;;11.00;99.90;;;;;;5053610;28;20045;-76
2022/09/01 06:05:54;;;;;;;0.25;0.25;;;11.10;99.90;;;;;;5035641;28;20487;-75
2022/09/01 06:08:22;;;;;;;0.00;0.00;;;11.10;99.90;;;;;;5053482;28;20094;-75
2022/09/01 06:10:49;;;;;;;0.00;0.00;;;11.20;99.90;;;;;;5053591;28;20124;-76
2022/09/01 06:13:16;;;;;;;0.00;0.00;;;11.30;99.90;;;;;;5035591;28;20071;-76
2022/09/01 06:15:43;;;;;;;0.08;0.08;;;11.30;99.90;;;;;;5053578;28;20041;-76
2022/09/01 06:18:12;;;;;;;0.10;0.10;;;11.40;99.90;;;;;;5053204;28;20056;-76
2022/09/01 06:20:39;;;;;;;0.80;0.30;;;11.50;99.90;;;;;;5053596;28;20033;-75
2022/09/01 06:23:06;;;;;;;0.00;0.00;;;11.60;99.90;;;;;;5035412;28;20053;-76
2022/09/01 06:25:31;;;;;;;0.47;0.43;;;11.80;99.90;;;;;;5053575;28;20075;-76
2022/09/01 06:27:58;;;;;;;0.25;0.13;;;12.50;99.90;;;;;;5053266;28;20428;-75
2022/09/01 06:30:25;;;;;;;0.20;0.05;;;13.40;99.90;;;;;;5053373;28;20053;-76
2022/09/01 06:32:52;;;;;;;0.10;0.10;;;14.60;99.90;;;;;;5053613;28;20131;-76
2022/09/01 06:35:19;;;;;;;0.03;0.03;;;15.60;99.90;;;;;;5035553;28;20080;-76
2022/09/01 06:37:47;;;;;;;0.20;0.20;;;16.50;99.90;;;;;;5053625;28;20045;-75
2022/09/01 06:40:17;;;;;;;0.55;0.22;;;17.00;99.90;;;;;;5053349;28;20107;-76
2022/09/01 06:42:47;;;;;;;1.98;0.40;;;17.70;99.90;;;;;;5052592;28;20064;-76
2022/09/01 06:45:16;;;;;;;0.40;0.40;;;17.90;99.90;;;;;;5052074;28;20139;-76
2022/09/01 06:47:44;;;;;;;0.47;0.45;;;17.90;99.90;;;;;;5052145;28;20076;-77
2022/09/01 06:50:20;;;;;;;0.00;0.00;;;18.00;99.90;;;;;;5050107;28;20052;-78
2022/09/01 06:52:48;;;;;;;0.52;0.38;;;17.70;99.90;;;;;;5049977;28;20119;-76
2022/09/01 06:55:15;;;;;;;1.35;0.90;;;17.80;99.90;;;;;;5050343;28;20075;-76
2022/09/01 06:57:47;;;;;;;2.95;0.73;;;17.00;99.90;;;;;;5053840;28;20052;-76
2022/09/01 07:00:19;;;;;;;0.00;0.00;;;16.40;99.90;;;;;;5054342;28;20140;-74
2022/09/01 07:02:52;;;;;;;2.78;0.85;;;16.30;99.90;;;;;;5036712;28;20099;-76
2022/09/01 07:05:20;;;;;;;0.52;0.45;;;16.90;99.90;;;;;;5053750;28;20519;-77
2022/09/01 07:07:48;;;;;;;0.00;0.00;;;17.50;99.90;;;;;;5053801;28;20120;-77
2022/09/01 07:10:14;;;;;;;0.65;0.17;;;18.40;99.90;;;;;;5053726;28;20449;-76
2022/09/01 07:12:42;;;;;;;0.00;0.00;;;19.00;99.90;;;;;;5053649;28;20044;-76
2022/09/01 07:15:08;;;;;;;0.13;0.13;;;19.40;99.90;;;;;;5053613;28;20053;-77
2022/09/01 07:17:33;;;;;;;1.13;0.77;;;19.70;99.90;;;;;;5035611;28;20396;-77
2022/09/01 07:19:59;;;;;;;0.47;0.43;;;19.80;99.90;;;;;;5053884;28;20071;-76
2022/09/01 07:22:24;;;;;;;0.98;0.57;;;19.90;99.90;;;;;;5053609;28;20043;-77
2022/09/01 07:24:56;;;;;;;1.08;0.68;;;20.40;99.90;;;;;;5053561;28;20407;-77
2022/09/01 07:27:27;;;;;;;0.15;0.15;;;20.60;99.90;;;;;;5035505;28;20037;-78
2022/09/01 07:29:55;;;;;;;0.10;0.10;;;20.50;99.90;;;;;;5053649;28;20463;-76
2022/09/01 07:32:21;;;;;;;0.28;0.20;;;20.30;99.90;;;;;;5053355;28;20081;-76
2022/09/01 07:34:47;;;;;;;0.38;0.38;;;20.20;99.90;;;;;;5053877;28;20084;-77
2022/09/01 07:37:13;;;;;;;0.00;0.00;;;20.10;99.90;;;;;;5053382;28;20080;-77
2022/09/01 07:39:43;;;;;;;0.00;0.00;;;19.80;99.90;;;;;;5053059;28;20091;-76
2022/09/01 07:42:10;;;;;;;0.10;0.10;;;19.10;99.90;;;;;;5053954;28;20049;-76
2022/09/01 07:44:37;;;;;;;1.40;0.38;;;18.70;99.90;;;;;;5053486;28;20411;-76
2022/09/01 07:47:08;;;;;;;0.00;0.00;;;18.50;99.90;;;;;;5053083;28;20041;-77
2022/09/01 07:49:36;;;;;;;0.38;0.38;;;19.20;99.90;;;;;;5052484;28;20515;-75
2022/09/01 07:52:04;;;;;;;0.35;0.17;;;20.10;99.90;;;;;;5052314;28;20045;-74
2022/09/01 07:54:30;;;;;;;0.00;0.00;;;20.50;97.70;;;;;;5052786;28;20128;-74
2022/09/01 07:56:55;;;;;;;0.28;0.20;;;20.60;96.50;;;;;;5052802;28;20122;-74
2022/09/01 07:59:22;;;;;;;0.38;0.30;;;20.80;94.90;;;;;;5031072;28;20054;-74
2022/09/01 08:01:48;;;;;;;0.00;0.00;;;21.10;97.80;;;;;;5032038;28;20522;-75
2022/09/01 08:04:14;;;;;;;0.08;0.08;;;22.00;84.10;;;;;;5032321;28;20041;-74
2022/09/01 08:06:39;;;;;;;0.00;0.00;;;22.10;69.50;;;;;;5032251;28;20408;-74
2022/09/01 08:09:09;;;;;;;0.73;0.35;;;21.60;80.90;;;;;;5031617;28;20519;-74
2022/09/01 08:11:35;;;;;;;3.60;0.60;;;21.40;80.50;;;;;;5032343;28;20092;-74
2022/09/01 08:14:01;;;;;;;0.05;0.05;;;22.00;90.00;;;;;;5032097;28;20083;-74
2022/09/01 08:16:28;;;;;;;5.82;0.20;;;22.80;76.70;;;;;;5031960;28;20052;-74
2022/09/01 08:18:55;;;;;;;0.00;0.00;;;23.10;62.00;;;;;;5031971;28;20063;-74
2022/09/01 08:21:22;;;;;;;5.47;0.45;;;23.80;54.00;;;;;;5032234;28;20057;-74
2022/09/01 08:23:49;;;;;;;0.65;0.32;;;23.90;38.00;;;;;;5031621;28;20046;-75
2022/09/01 08:26:17;;;;;;;0.00;0.00;;;24.00;38.60;;;;;;5031787;28;20554;-75
2022/09/01 08:28:43;;;;;;;0.40;0.20;;;23.90;40.40;;;;;;5031956;28;20049;-75
2022/09/01 08:31:12;;;;;;;2.92;0.63;;;24.30;33.70;;;;;;5031545;28;20071;-74
2022/09/01 08:33:39;;;;;;;0.00;0.00;;;25.00;33.50;;;;;;5031664;28;20041;-77
2022/09/01 08:36:10;;;;;;;20.73;2.53;;;25.30;20.80;;;;;;5032126;28;20042;-75
2022/09/01 08:38:36;;;;;;;1.20;0.60;;;25.30;16.70;;;;;;5034536;28;20053;-76
2022/09/01 08:41:04;;;;;;;0.00;0.00;;;25.00;17.60;;;;;;5034374;28;20034;-75
2022/09/01 08:43:54;;;;;;;2.25;0.52;;;24.10;27.30;;;;;;5034349;28;20045;-75
2022/09/01 08:46:30;;;;;;;0.20;0.10;;;24.50;23.50;;;;;;5033992;28;20128;-76
2022/09/01 08:49:02;;;;;;;0.00;0.00;;;24.40;20.10;;;;;;5034534;28;20088;-75
2022/09/01 08:51:47;;;;;;;0.43;0.28;;;24.80;15.00;;;;;;5034543;28;20506;-73
2022/09/01 08:54:44;;;;;;;0.60;0.22;;;24.40;12.70;;;;;;5033944;28;20053;-75
2022/09/01 08:57:17;;;;;;;0.20;0.00;;;24.60;17.30;;;;;;5031779;28;20455;-75
2022/09/01 08:59:42;;;;;;;0.03;0.03;;;23.60;20.30;;;;;;5048988;28;20049;-77
2022/09/01 09:02:38;;;;;;;1.17;0.20;;;24.30;20.00;;;;;;5051170;28;20063;-76
2022/09/01 09:05:06;;;;;;;0.10;0.03;;;24.70;14.30;;;;;;5051654;28;20053;-76
2022/09/01 09:07:49;;;;;;;0.00;0.00;;;25.00;13.20;;;;;;5050994;28;20406;-76
2022/09/01 09:10:27;;;;;;;0.17;0.15;;;25.20;6.60;;;;;;5051452;28;20049;-76
2022/09/01 09:13:03;;;;;;;0.20;0.20;;;24.60;8.00;;;;;;5051220;28;20539;-74
2022/09/01 09:15:52;;;;;;;0.00;0.00;;;24.70;10.90;;;;;;5051328;28;20553;-75
2022/09/01 09:18:34;;;;;;;0.20;0.17;;;25.10;8.90;;;;;;5051422;28;20041;-79
2022/09/01 09:21:24;;;;;;;0.10;0.10;;;25.40;9.10;;;;;;5051584;28;20094;-79
2022/09/01 09:24:04;;;;;;;0.00;0.00;;;25.60;10.30;;;;;;5050321;28;20076;-79
2022/09/01 09:26:31;;;;;;;7.88;0.55;;;26.00;1.40;;;;;;5052387;28;20151;-77
2022/09/01 09:28:56;;;;;;;0.00;0.00;;;24.50;4.30;;;;;;5052142;28;20044;-77
2022/09/01 09:31:37;;;;;;;0.32;0.30;;;24.10;7.00;;;;;;5051869;28;20037;-76
2022/09/01 09:34:17;;;;;;;0.52;0.15;;;24.60;10.50;;;;;;5033800;28;20044;-77
2022/09/01 09:36:45;;;;;;;0.30;0.10;;;24.80;5.90;;;;;;5052194;28;20481;-74
2022/09/01 09:39:17;;;;;;;0.00;0.00;;;24.70;6.50;;;;;;5053287;28;20064;-74
2022/09/01 09:42:00;;;;;;;0.20;0.20;;;24.10;11.30;;;;;;5053548;28;20052;-74
2022/09/01 09:44:30;;;;;;;0.13;0.05;;;23.50;7.20;;;;;;5053022;28;20110;-73
2022/09/01 09:46:56;;;;;;;0.10;0.10;;;23.20;12.50;;;;;;5052933;28;20056;-74
2022/09/01 09:49:26;;;;;;;1.02;0.43;;;23.30;16.10;;;;;;5053254;28;20377;-74
2022/09/01 09:51:55;;;;;;;0.00;0.00;;;23.60;15.80;;;;;;5053311;28;20048;-74
2022/09/01 09:54:28;;;;;;;0.00;0.00;;;23.10;6.70;;;;;;5053203;28;20068;-74
2022/09/01 09:57:12;;;;;;;0.10;0.10;;;22.80;9.30;;;;;;5052238;28;20041;-75
2022/09/01 09:59:41;;;;;;;0.32;0.10;;;23.30;12.20;;;;;;5051638;28;20507;-74
2022/09/01 10:02:41;;;;;;;0.00;0.00;;;23.60;13.80;;;;;;5051834;28;20411;-75
2022/09/01 10:05:32;;;;;;;0.00;0.00;;;24.00;9.40;;;;;;5020025;28;20407;-74
2022/09/01 10:07:58;;;;;;;0.57;0.35;;;23.60;3.00;;;;;;5052568;28;20077;-74
2022/09/01 10:10:43;;;;;;;0.03;0.03;;;23.60;1.00;;;;;;5052969;28;20486;-74
2022/09/01 10:13:21;;;;;;;0.10;0.10;;;23.90;1.00;;;;;;5052799;28;20079;-74
2022/09/01 10:15:50;;;;;;;0.80;0.10;;;23.50;1.00;;;;;;5052965;28;20057;-74
2022/09/01 10:18:43;;;;;;;0.00;0.00;;;23.90;1.00;;;;;;5052607;28;20049;-74
2022/09/01 10:21:25;;;;;;;0.00;0.00;;;23.90;1.00;;;;;;5050174;28;20053;-73
2022/09/01 10:23:51;;;;;;;0.00;0.00;;;23.60;1.00;;;;;;5052670;28;20609;-74
2022/09/01 10:26:32;;;;;;;0.00;0.00;;;23.10;1.00;;;;;;5052569;28;20056;-74
2022/09/01 10:29:12;;;;;;;0.08;0.08;;;22.90;1.00;;;;;;5052926;28;20115;-74
2022/09/01 10:31:39;;;;;;;0.25;0.13;;;22.50;1.00;;;;;;5052420;28;20065;-74
2022/09/01 10:34:11;;;;;;;0.00;0.00;;;22.30;1.00;;;;;;5052569;28;20049;-73
2022/09/01 10:36:37;;;;;;;0.20;0.10;;;22.40;1.00;;;;;;5052484;28;20448;-74
2022/09/01 10:39:03;;;;;;;0.00;0.00;;;22.50;1.00;;;;;;5052365;28;20492;-74
2022/09/01 10:41:41;;;;;;;0.00;0.00;;;22.80;1.00;;;;;;5052597;28;20045;-74
2022/09/01 10:44:09;;;;;;;0.38;0.30;;;23.00;1.00;;;;;;5052894;28;20048;-74
2022/09/01 10:46:35;;;;;;;0.00;0.00;;;22.60;1.00;;;;;;5052401;28;20167;-74
2022/09/01 10:49:00;;;;;;;0.00;0.00;;;22.30;1.00;;;;;;5052546;28;20132;-74
2022/09/01 10:51:26;;;;;;;0.10;0.10;;;22.80;1.00;;;;;;5052354;28;20053;-74
2022/09/01 10:53:53;;;;;;;0.00;0.00;;;22.70;1.00;;;;;;5052375;28;20037;-73
2022/09/01 10:56:39;;;;;;;0.47;0.20;;;22.80;1.00;;;;;;5052477;28;20045;-75
2022/09/01 10:59:23;;;;;;;;;;;22.90;1.00;;;;;;5052512;28;20060;-75
2022/09/01 11:01:48;;;;;;;0.00;0.00;;;22.90;1.00;;;;;;5052177;28;19928;-73
2022/09/01 11:04:29;;;;;;;0.03;0.03;;;22.70;1.00;;;;;;5052284;28;20041;-74
2022/09/01 11:07:05;;;;;;;0.08;0.05;;;22.40;1.00;;;;;;5052234;28;20041;-74
2022/09/01 11:09:33;;;;;;;7.03;1.10;;;22.40;1.00;;;;;;5052277;28;20057;-74
2022/09/01 11:12:09;;;;;;;0.45;0.28;;;22.30;1.00;;;;;;5052107;28;20095;-74
2022/09/01 11:14:50;;;;;;;0.00;0.00;;;22.40;1.00;;;;;;5052242;28;20092;-74
2022/09/01 11:17:26;;;;;;;0.00;0.00;;;22.30;1.00;;;;;;5052178;28;20094;-73
2022/09/01 11:20:09;;;;;;;0.00;0.00;;;22.50;1.00;;;;;;5050890;28;20136;-74
2022/09/01 11:22:42;;;;;;;0.00;0.00;;;22.50;1.00;;;;;;5051978;28;20156;-75
2022/09/01 11:25:13;;;;;;;0.00;0.00;;;22.80;1.00;;;;;;5051833;28;20500;-74
2022/09/01 11:27:47;;;;;;;0.00;0.00;;;23.50;1.00;;;;;;5052037;28;20082;-73
2022/09/01 11:30:51;;;;;;;0.00;0.00;;;23.70;1.00;;;;;;5051849;28;20514;-75
2022/09/01 11:33:35;;;;;;;0.03;0.03;;;23.40;1.00;;;;;;5051510;28;20064;-73
2022/09/01 11:36:11;;;;;;;3.00;0.43;;;22.70;1.00;;;;;;5052119;28;20120;-74
2022/09/01 11:38:55;;;;;;;0.00;0.00;;;22.90;1.00;;;;;;5052167;28;20041;-74
2022/09/01 11:41:23;;;;;;;0.05;0.05;;;22.70;1.00;;;;;;5051726;28;20399;-74
2022/09/01 11:43:52;;;;;;;0.85;0.20;;;22.70;1.00;;;;;;5054572;28;20076;-75
2022/09/01 11:46:25;;;;;;;0.00;0.00;;;23.30;1.00;;;;;;5056014;28;20049;-77
2022/09/01 11:48:51;;;;;;;1.17;0.17;;;24.00;1.00;;;;;;5055631;28;20048;-77
2022/09/01 11:51:17;;;;;;;0.00;0.00;;;23.60;1.00;;;;;;5055415;28;20503;-76
2022/09/01 11:53:43;;;;;;;0.00;0.00;;;23.20;1.00;;;;;;5055477;28;20049;-77
2022/09/01 11:56:18;;;;;;;0.00;0.00;;;24.00;1.00;;;;;;5055503;28;20488;-74
2022/09/01 11:58:44;;;;;;;0.17;0.15;;;25.20;1.00;;;;;;5055140;28;20064;-75
2022/09/01 12:01:18;;;;;;;0.10;0.10;;;26.10;1.00;;;;;;5055078;28;20041;-74
2022/09/01 12:03:47;;;;;;;0.00;0.00;;;25.80;1.00;;;;;;5055108;28;20033;-74
2022/09/01 12:06:19;;;;;;;0.00;0.00;;;24.80;1.00;;;;;;5055092;28;20044;-74
2022/09/01 12:08:53;;;;;;;0.10;0.10;;;24.40;1.00;;;;;;5054989;28;20120;-74
2022/09/01 12:11:25;;;;;;;1.55;0.32;;;25.10;1.00;;;;;;5055110;28;20045;-74
2022/09/01 12:13:57;;;;;;;0.13;0.10;;;26.40;1.00;;;;;;5054999;28;20087;-74
2022/09/01 12:16:23;;;;;;;0.00;0.00;;;25.30;1.00;;;;;;5037493;28;20045;-74
2022/09/01 12:18:52;;;;;;;0.13;0.10;;;24.80;1.00;;;;;;5055173;28;20043;-74
2022/09/01 12:21:41;;;;;;;0.00;0.00;;;24.10;1.00;;;;;;5054657;28;20040;-75
2022/09/01 12:24:17;;;;;;;0.10;0.10;;;24.20;1.00;;;;;;5054980;28;20087;-74
2022/09/01 12:26:44;;;;;;;0.00;0.00;;;24.40;1.00;;;;;;5054856;28;20123;-74
2022/09/01 12:29:12;;;;;;;0.40;0.10;;;24.00;1.00;;;;;;5054695;28;20045;-74
2022/09/01 12:31:42;;;;;;;0.00;0.00;;;24.70;1.00;;;;;;5037028;28;20094;-74
2022/09/01 12:34:23;;;;;;;0.00;0.00;;;24.40;1.00;;;;;;5054725;28;20428;-74
2022/09/01 12:37:02;;;;;;;28.17;0.80;;;24.20;1.00;;;;;;5054683;28;20045;-74
2022/09/01 12:39:43;;;;;;;0.10;0.10;;;24.20;1.00;;;;;;5054496;28;20049;-74
2022/09/01 12:42:18;;;;;;;0.05;0.05;;;25.70;1.00;;;;;;5054520;28;20045;-74
2022/09/01 12:44:56;;;;;;;0.00;0.00;;;26.60;1.00;;;;;;5054852;28;20060;-77
2022/09/01 12:47:36;;;;;;;0.00;0.00;;;26.20;1.00;;;;;;5054589;28;20076;-76
2022/09/01 12:50:27;;;;;;;0.68;0.45;;;25.10;1.00;;;;;;5054460;28;20052;-74
2022/09/01 12:52:57;;;;;;;0.47;0.40;;;25.40;1.00;;;;;;5054114;28;20045;-74
2022/09/01 12:55:28;;;;;;;0.00;0.00;;;24.70;1.00;;;;;;5054148;28;20053;-76
2022/09/01 12:57:59;;;;;;;0.08;0.08;;;24.90;1.00;;;;;;5054279;28;20084;-77
2022/09/01 13:00:31;;;;;;;0.63;0.43;;;26.10;1.00;;;;;;5054441;28;20464;-74
2022/09/01 13:03:10;;;;;;;0.00;0.00;;;26.50;1.00;;;;;;5053896;28;20045;-74
2022/09/01 13:05:45;;;;;;;0.00;0.00;;;27.60;1.00;;;;;;5054131;28;20037;-74
2022/09/01 13:08:20;;;;;;;1.45;0.28;;;28.20;1.00;;;;;;5053826;28;20095;-74
2022/09/01 13:10:52;;;;;;;0.00;0.00;;;28.70;1.00;;;;;;5053989;28;20080;-74
2022/09/01 13:13:18;;;;;;;0.00;0.00;;;28.00;1.00;;;;;;5053790;28;20048;-74